createdAt,value
2019-03-26T00:00:40.973Z,5.23
2019-03-26T00:03:13.762Z,4.30
2019-03-26T00:05:46.609Z,3.67
2019-03-26T00:08:19.262Z,6.55
2019-03-26T00:10:51.893Z,6.92
2019-03-26T00:13:24.572Z,4.17
2019-03-26T00:15:58.297Z,3.50
2019-03-26T00:18:30.978Z,4.50
2019-03-26T00:21:03.768Z,5.13
2019-03-26T00:23:36.516Z,5.63
2019-03-26T00:26:09.110Z,4.07
2019-03-26T00:28:41.726Z,4.93
2019-03-26T00:31:14.332Z,5.10
2019-03-26T00:33:46.991Z,4.03
2019-03-26T00:36:19.736Z,4.12
2019-03-26T00:38:52.273Z,4.53
2019-03-26T00:41:24.851Z,3.93
2019-03-26T00:43:57.365Z,4.77
2019-03-26T00:46:29.903Z,4.53
2019-03-26T00:49:02.425Z,4.20
2019-03-26T00:51:34.941Z,3.83
2019-03-26T00:54:07.543Z,6.43
2019-03-26T00:56:40.133Z,4.50
2019-03-26T00:59:12.705Z,5.47
2019-03-26T01:01:45.324Z,4.60
2019-03-26T01:04:17.944Z,4.40
2019-03-26T01:06:50.549Z,4.17
2019-03-26T01:09:23.900Z,7.17
2019-03-26T01:11:56.437Z,4.90
2019-03-26T01:14:29.058Z,5.58
2019-03-26T01:17:01.579Z,7.27
2019-03-26T01:19:34.177Z,5.53
2019-03-26T01:22:07.776Z,4.97
2019-03-26T01:24:40.570Z,8.93
2019-03-26T01:27:13.155Z,5.57
2019-03-26T01:29:45.682Z,6.07
2019-03-26T01:32:18.195Z,5.58
2019-03-26T01:34:50.705Z,4.90
2019-03-26T01:37:23.224Z,5.77
2019-03-26T01:39:55.733Z,7.77
2019-03-26T01:42:28.325Z,5.77
2019-03-26T01:45:00.828Z,6.93
2019-03-26T01:47:33.366Z,5.17
2019-03-26T01:50:06.785Z,6.50
2019-03-26T01:52:39.310Z,7.37
2019-03-26T01:55:12.290Z,7.63
2019-03-26T01:57:45.172Z,7.07
2019-03-26T02:00:17.981Z,5.72
2019-03-26T02:02:51.025Z,7.97
2019-03-26T02:05:23.555Z,5.22
2019-03-26T02:07:56.083Z,6.60
2019-03-26T02:10:28.601Z,6.60
2019-03-26T02:13:01.127Z,6.67
2019-03-26T02:15:34.835Z,7.53
2019-03-26T02:18:08.789Z,7.40
2019-03-26T02:20:41.384Z,8.83
2019-03-26T02:23:14.575Z,6.57
2019-03-26T02:25:47.101Z,6.50
2019-03-26T02:28:19.711Z,7.70
2019-03-26T02:30:52.297Z,6.80
2019-03-26T02:33:24.901Z,7.45
2019-03-26T02:35:57.425Z,7.72
2019-03-26T02:38:30.137Z,10.10
2019-03-26T02:41:02.658Z,9.70
2019-03-26T02:43:35.166Z,9.10
2019-03-26T02:46:07.846Z,7.53
2019-03-26T02:48:40.696Z,8.87
2019-03-26T02:51:13.206Z,7.63
2019-03-26T02:53:45.738Z,9.08
2019-03-26T02:56:18.252Z,6.95
2019-03-26T02:58:50.777Z,8.10
2019-03-26T03:01:23.307Z,8.03
2019-03-26T03:03:55.837Z,8.90
2019-03-26T03:06:28.366Z,8.40
2019-03-26T03:09:00.902Z,7.90
2019-03-26T03:11:33.803Z,7.53
2019-03-26T03:14:06.479Z,7.87
2019-03-26T03:16:39.002Z,9.77
2019-03-26T03:19:15.865Z,8.00
2019-03-26T03:21:46.888Z,7.97
2019-03-26T03:24:19.402Z,9.08
2019-03-26T03:26:52.001Z,7.33
2019-03-26T03:29:24.532Z,7.20
2019-03-26T03:31:57.048Z,10.57
2019-03-26T03:34:29.968Z,10.15
2019-03-26T03:37:02.532Z,7.07
2019-03-26T03:39:35.045Z,8.67
2019-03-26T03:42:08.773Z,8.00
2019-03-26T03:44:41.537Z,9.00
2019-03-26T03:47:16.188Z,8.10
2019-03-26T03:49:49.446Z,8.40
2019-03-26T03:52:23.738Z,8.65
2019-03-26T03:54:56.564Z,10.27
2019-03-26T03:57:32.665Z,8.65
2019-03-26T04:00:06.924Z,11.53
2019-03-26T04:02:39.432Z,7.87
2019-03-26T04:05:12.198Z,7.27
2019-03-26T04:07:44.713Z,9.30
2019-03-26T04:10:17.215Z,7.72
2019-03-26T04:12:49.721Z,7.77
2019-03-26T04:15:22.218Z,9.28
2019-03-26T04:17:54.762Z,12.93
2019-03-26T04:20:27.575Z,9.15
2019-03-26T04:23:00.294Z,9.73
2019-03-26T04:25:33.121Z,8.93
2019-03-26T04:28:05.790Z,9.47
2019-03-26T04:30:38.705Z,7.97
2019-03-26T04:33:12.445Z,10.90
2019-03-26T04:35:44.960Z,8.33
2019-03-26T04:38:17.543Z,9.95
2019-03-26T04:40:50.283Z,9.17
2019-03-26T04:43:22.844Z,10.18
2019-03-26T04:45:55.488Z,12.10
2019-03-26T04:48:28.323Z,12.03
2019-03-26T04:51:00.826Z,9.53
2019-03-26T04:53:34.329Z,9.45
2019-03-26T04:56:07.020Z,10.43
2019-03-26T04:58:39.722Z,11.17
2019-03-26T05:01:12.729Z,12.30
2019-03-26T05:03:45.600Z,12.67
2019-03-26T05:06:18.251Z,12.50
2019-03-26T05:08:50.797Z,12.03
2019-03-26T05:11:23.343Z,11.50
2019-03-26T05:13:55.860Z,9.63
2019-03-26T05:16:28.464Z,10.63
2019-03-26T05:19:00.980Z,9.20
2019-03-26T05:21:33.653Z,10.40
2019-03-26T05:24:06.618Z,11.53
2019-03-26T05:26:39.240Z,11.97
2019-03-26T05:29:12.102Z,12.60
2019-03-26T05:31:44.926Z,12.43
2019-03-26T05:34:17.686Z,11.65
2019-03-26T05:36:51.702Z,11.27
2019-03-26T05:39:24.495Z,11.77
2019-03-26T05:41:56.993Z,10.77
2019-03-26T05:44:29.511Z,10.98
2019-03-26T05:47:02.095Z,10.30
2019-03-26T05:49:34.615Z,11.07
2019-03-26T05:52:07.113Z,12.17
2019-03-26T05:54:39.647Z,10.73
2019-03-26T05:57:12.317Z,11.53
2019-03-26T05:59:44.901Z,11.53
2019-03-26T06:02:18.114Z,11.53
2019-03-26T06:04:50.983Z,11.33
2019-03-26T06:07:23.563Z,13.35
2019-03-26T06:09:57.110Z,11.90
2019-03-26T06:12:30.583Z,11.70
2019-03-26T06:15:11.884Z,11.27
2019-03-26T06:17:42.048Z,15.00
2019-03-26T06:20:14.735Z,11.33
2019-03-26T06:22:47.254Z,13.07
2019-03-26T06:25:19.847Z,11.97
2019-03-26T06:27:52.355Z,10.37
2019-03-26T06:30:24.865Z,13.47
2019-03-26T06:32:57.405Z,8.93
2019-03-26T06:35:29.873Z,10.40
2019-03-26T06:38:02.360Z,13.03
2019-03-26T06:40:35.607Z,11.90
2019-03-26T06:43:08.102Z,14.83
2019-03-26T06:45:40.866Z,13.60
2019-03-26T06:48:13.457Z,13.53
2019-03-26T06:50:47.280Z,15.43
2019-03-26T06:53:19.771Z,16.12
2019-03-26T06:55:52.287Z,12.57
2019-03-26T06:58:24.867Z,14.47
2019-03-26T07:00:57.465Z,13.37
2019-03-26T07:03:30.052Z,10.82
2019-03-26T07:06:02.632Z,14.07
2019-03-26T07:08:35.118Z,12.07
2019-03-26T07:11:07.707Z,16.70
2019-03-26T07:13:40.221Z,14.73
2019-03-26T07:16:12.816Z,13.07
2019-03-26T07:18:45.374Z,15.27
2019-03-26T07:21:17.880Z,12.95
2019-03-26T07:23:50.449Z,14.73
2019-03-26T07:26:23.138Z,13.03
2019-03-26T07:28:56.884Z,13.43
2019-03-26T07:31:29.644Z,19.30
2019-03-26T07:34:02.154Z,15.00
2019-03-26T07:36:34.747Z,13.30
2019-03-26T07:39:09.300Z,18.77
2019-03-26T07:41:41.875Z,16.70
2019-03-26T07:44:14.411Z,16.97
2019-03-26T07:46:46.986Z,12.67
2019-03-26T07:49:19.527Z,18.82
2019-03-26T07:51:52.283Z,12.17
2019-03-26T07:54:24.878Z,13.93
2019-03-26T07:56:58.451Z,19.90
2019-03-26T07:59:30.948Z,12.97
2019-03-26T08:02:03.489Z,14.60
2019-03-26T08:04:38.614Z,15.43
2019-03-26T08:07:11.343Z,15.63
2019-03-26T08:09:43.860Z,15.08
2019-03-26T08:12:16.435Z,14.95
2019-03-26T08:14:49.036Z,21.00
2019-03-26T08:17:21.814Z,15.23
2019-03-26T08:19:54.572Z,14.20
2019-03-26T08:22:27.078Z,12.28
2019-03-26T08:24:59.650Z,14.23
2019-03-26T08:27:32.150Z,13.33
2019-03-26T08:30:05.674Z,15.80
2019-03-26T08:32:38.267Z,12.17
2019-03-26T08:35:11.047Z,13.53
2019-03-26T08:37:43.563Z,11.70
2019-03-26T08:40:16.408Z,12.53
2019-03-26T08:42:49.057Z,12.27
2019-03-26T08:45:21.899Z,8.10
2019-03-26T08:47:54.418Z,12.50
2019-03-26T08:50:26.917Z,11.30
2019-03-26T08:52:59.438Z,14.43
2019-03-26T08:55:31.943Z,22.33
2019-03-26T08:58:04.557Z,13.27
2019-03-26T09:00:37.385Z,10.07
2019-03-26T09:03:10.675Z,9.47
2019-03-26T09:05:43.254Z,11.63
2019-03-26T09:08:25.184Z,14.23
2019-03-26T09:10:52.067Z,11.10
2019-03-26T09:13:24.480Z,12.33
2019-03-26T09:15:56.976Z,11.47
2019-03-26T09:18:29.624Z,4.10
2019-03-26T09:21:02.207Z,12.07
2019-03-26T09:23:34.703Z,11.03
2019-03-26T09:26:07.299Z,9.03
2019-03-26T09:28:39.802Z,8.00
2019-03-26T09:31:12.304Z,11.13
2019-03-26T09:33:44.913Z,10.53
2019-03-26T09:36:17.477Z,9.28
2019-03-26T09:38:50.267Z,7.67
2019-03-26T09:41:22.761Z,8.73
2019-03-26T09:43:55.257Z,9.43
2019-03-26T09:46:27.814Z,9.58
2019-03-26T09:49:00.394Z,7.63
2019-03-26T09:51:32.900Z,6.00
2019-03-26T09:54:05.480Z,5.23
2019-03-26T09:56:37.985Z,8.50
2019-03-26T09:59:10.559Z,7.33
2019-03-26T10:01:43.070Z,6.27
2019-03-26T10:04:15.554Z,12.20
2019-03-26T10:06:48.068Z,8.17
2019-03-26T10:09:20.557Z,9.43
2019-03-26T10:11:53.123Z,6.33
2019-03-26T10:14:25.628Z,7.67
2019-03-26T10:16:58.101Z,8.17
2019-03-26T10:19:30.887Z,6.17
2019-03-26T10:22:03.537Z,10.87
2019-03-26T10:24:36.116Z,7.97
2019-03-26T10:27:10.201Z,10.07
2019-03-26T10:29:42.700Z,8.47
2019-03-26T10:32:15.351Z,7.10
2019-03-26T10:34:47.867Z,5.30
2019-03-26T10:37:20.519Z,7.28
2019-03-26T10:39:53.027Z,5.80
2019-03-26T10:42:25.658Z,3.67
2019-03-26T10:44:58.229Z,6.10
2019-03-26T10:47:30.706Z,6.10
2019-03-26T10:50:03.199Z,4.27
2019-03-26T10:52:35.948Z,5.17
2019-03-26T10:55:08.671Z,2.23
2019-03-26T10:57:41.153Z,3.57
2019-03-26T11:00:14.167Z,5.47
2019-03-26T11:02:46.815Z,5.70
2019-03-26T11:05:19.561Z,5.60
2019-03-26T11:07:52.117Z,4.10
2019-03-26T11:10:24.686Z,3.62
2019-03-26T11:12:57.327Z,4.77
2019-03-26T11:15:29.894Z,4.57
2019-03-26T11:18:02.382Z,4.30
2019-03-26T11:20:35.145Z,5.33
2019-03-26T11:23:08.040Z,4.17
2019-03-26T11:25:40.607Z,5.35
2019-03-26T11:28:13.418Z,6.70
2019-03-26T11:30:45.917Z,5.10
2019-03-26T11:33:18.405Z,5.58
2019-03-26T11:35:50.971Z,4.03
2019-03-26T11:38:23.525Z,2.75
2019-03-26T11:40:56.021Z,4.83
2019-03-26T11:43:28.514Z,3.87
2019-03-26T11:46:01.088Z,4.93
2019-03-26T11:48:33.590Z,2.57
2019-03-26T11:51:06.228Z,3.17
2019-03-26T11:53:38.729Z,2.67
2019-03-26T11:56:11.291Z,3.90
2019-03-26T11:58:43.780Z,2.13
2019-03-26T12:01:16.367Z,3.37
2019-03-26T12:03:48.854Z,5.40
2019-03-26T12:06:21.433Z,2.47
2019-03-26T12:08:54.054Z,2.00
2019-03-26T12:11:26.556Z,1.45
2019-03-26T12:13:59.046Z,5.50
2019-03-26T12:16:31.522Z,4.03
2019-03-26T12:19:04.015Z,3.27
2019-03-26T12:21:36.507Z,3.80
2019-03-26T12:24:09.057Z,3.03
2019-03-26T12:26:41.643Z,4.47
2019-03-26T12:29:14.633Z,4.90
2019-03-26T12:31:47.145Z,3.83
2019-03-26T12:34:19.619Z,5.00
2019-03-26T12:36:52.191Z,3.27
2019-03-26T12:39:25.656Z,2.30
2019-03-26T12:41:58.232Z,3.00
2019-03-26T12:44:30.726Z,2.57
2019-03-26T12:47:03.219Z,2.17
2019-03-26T12:49:36.682Z,3.00
2019-03-26T12:52:10.495Z,4.33
2019-03-26T12:54:43.057Z,3.95
2019-03-26T12:57:15.551Z,3.87
2019-03-26T12:59:48.142Z,3.87
2019-03-26T13:02:20.631Z,4.00
2019-03-26T13:04:53.150Z,2.33
2019-03-26T13:07:25.710Z,3.58
2019-03-26T13:09:58.280Z,5.17
2019-03-26T13:12:30.780Z,3.87
2019-03-26T13:15:03.296Z,4.77
2019-03-26T13:17:36.831Z,5.40
2019-03-26T13:20:10.231Z,5.50
2019-03-26T13:22:42.794Z,3.97
2019-03-26T13:25:15.363Z,3.67
2019-03-26T13:27:47.841Z,3.33
2019-03-26T13:30:21.770Z,3.70
2019-03-26T13:32:54.263Z,5.73
2019-03-26T13:35:26.752Z,5.17
2019-03-26T13:37:59.478Z,2.37
2019-03-26T13:40:31.970Z,2.47
2019-03-26T13:43:04.459Z,3.43
2019-03-26T13:45:37.026Z,1.27
2019-03-26T13:48:10.532Z,4.60
2019-03-26T13:50:43.163Z,3.83
2019-03-26T13:53:15.728Z,3.10
2019-03-26T13:55:48.565Z,2.77
2019-03-26T13:58:21.122Z,3.25
2019-03-26T14:00:53.714Z,2.53
2019-03-26T14:03:26.207Z,4.03
2019-03-26T14:05:58.708Z,2.87
2019-03-26T14:08:31.805Z,3.80
2019-03-26T14:11:04.795Z,2.47
2019-03-26T14:13:37.280Z,2.17
2019-03-26T14:16:10.469Z,2.30
2019-03-26T14:18:42.953Z,4.10
2019-03-26T14:21:15.468Z,2.22
2019-03-26T14:23:48.049Z,3.03
2019-03-26T14:26:20.562Z,4.17
2019-03-26T14:28:53.618Z,5.00
2019-03-26T14:31:26.111Z,3.15
2019-03-26T14:33:58.590Z,2.73
2019-03-26T14:36:31.253Z,6.17
2019-03-26T14:39:04.754Z,3.40
2019-03-26T14:41:38.214Z,5.50
2019-03-26T14:44:11.841Z,4.27
2019-03-26T14:46:44.363Z,5.50
2019-03-26T14:49:16.850Z,3.33
2019-03-26T14:51:49.339Z,2.67
2019-03-26T14:54:21.924Z,3.92
2019-03-26T14:56:54.415Z,3.50
2019-03-26T14:59:26.899Z,4.78
2019-03-26T15:01:59.468Z,5.10
2019-03-26T15:04:32.023Z,3.50
2019-03-26T15:07:04.602Z,3.80
2019-03-26T15:09:37.079Z,4.30
2019-03-26T15:12:10.326Z,4.03
2019-03-26T15:14:43.065Z,2.77
2019-03-26T15:17:15.578Z,2.67
2019-03-26T15:19:48.130Z,5.87
2019-03-26T15:22:20.863Z,6.65
2019-03-26T15:24:53.351Z,6.87
2019-03-26T15:27:25.854Z,5.17
2019-03-26T15:29:58.348Z,4.63
2019-03-26T15:32:31.107Z,3.20
2019-03-26T15:35:03.748Z,2.10
2019-03-26T15:37:36.256Z,3.03
2019-03-26T15:40:09.479Z,6.20
2019-03-26T15:42:42.244Z,4.00
2019-03-26T15:45:15.073Z,6.67
2019-03-26T15:47:47.574Z,4.60
2019-03-26T15:50:58.051Z,2.72
2019-03-26T15:53:30.559Z,5.72
2019-03-26T15:56:03.119Z,6.08
2019-03-26T15:58:35.859Z,9.17
2019-03-26T16:01:08.512Z,4.07
2019-03-26T16:03:41.086Z,7.23
2019-03-26T16:06:13.830Z,10.27
2019-03-26T16:08:47.386Z,8.03
2019-03-26T16:11:19.882Z,6.87
2019-03-26T16:13:52.386Z,6.43
2019-03-26T16:16:24.863Z,8.73
2019-03-26T16:18:57.372Z,6.37
2019-03-26T16:21:29.982Z,8.20
2019-03-26T16:24:02.532Z,6.73
2019-03-26T16:26:35.022Z,6.62
2019-03-26T16:29:07.829Z,9.03
2019-03-26T16:31:40.319Z,8.13
2019-03-26T16:34:12.826Z,10.40
2019-03-26T16:36:58.473Z,9.10
2019-03-26T16:39:19.841Z,10.90
2019-03-26T16:41:52.408Z,5.63
2019-03-26T16:44:25.160Z,10.57
2019-03-26T16:46:57.669Z,7.57
2019-03-26T16:49:30.240Z,10.93
2019-03-26T16:52:02.742Z,13.17
2019-03-26T16:54:35.252Z,11.75
2019-03-26T16:57:07.751Z,14.90
2019-03-26T16:59:40.306Z,15.10
2019-03-26T17:02:12.827Z,12.63
2019-03-26T17:04:47.011Z,16.10
2019-03-26T17:07:19.687Z,19.12
2019-03-26T17:09:52.620Z,15.80
2019-03-26T17:12:25.703Z,17.57
2019-03-26T17:14:58.375Z,13.43
2019-03-26T17:17:30.868Z,19.97
2019-03-26T17:20:03.526Z,20.63
2019-03-26T17:22:36.177Z,20.83
2019-03-26T17:25:09.389Z,17.63
2019-03-26T17:27:41.908Z,15.93
2019-03-26T17:30:14.839Z,17.25
2019-03-26T17:32:47.675Z,17.63
2019-03-26T17:35:20.364Z,17.95
2019-03-26T17:37:59.615Z,18.20
2019-03-26T17:40:27.202Z,16.15
2019-03-26T17:43:00.869Z,16.97
2019-03-26T17:45:33.413Z,17.20
2019-03-26T17:48:06.325Z,27.00
2019-03-26T17:50:38.828Z,18.03
2019-03-26T17:53:11.323Z,14.80
2019-03-26T17:55:44.579Z,18.27
2019-03-26T17:58:17.083Z,21.73
2019-03-26T18:00:50.028Z,19.03
2019-03-26T18:03:26.667Z,22.00
2019-03-26T18:05:56.727Z,17.13
2019-03-26T18:08:29.219Z,17.93
2019-03-26T18:11:02.048Z,18.80
2019-03-26T18:13:35.038Z,20.70
2019-03-26T18:16:07.726Z,17.10
2019-03-26T18:18:40.527Z,18.77
2019-03-26T18:21:13.012Z,25.73
2019-03-26T18:23:45.511Z,28.43
2019-03-26T18:26:18.415Z,17.87
2019-03-26T18:28:50.898Z,18.97
2019-03-26T18:31:24.014Z,21.17
2019-03-26T18:33:56.657Z,21.70
2019-03-26T18:36:29.235Z,19.62
2019-03-26T18:39:02.701Z,18.70
2019-03-26T18:41:36.572Z,16.27
2019-03-26T18:44:09.300Z,16.23
2019-03-26T18:46:42.446Z,14.33
2019-03-26T18:49:15.198Z,20.65
2019-03-26T18:51:47.861Z,16.90
2019-03-26T18:54:20.360Z,12.43
2019-03-26T18:56:52.995Z,42.87
2019-03-26T18:59:25.509Z,40.33
2019-03-26T19:01:58.000Z,22.93
2019-03-26T19:04:30.652Z,20.25
2019-03-26T19:07:03.149Z,11.67
2019-03-26T19:09:35.778Z,15.53
2019-03-26T19:12:08.361Z,18.60
2019-03-26T19:14:42.302Z,18.17
2019-03-26T19:17:14.969Z,18.27
2019-03-26T19:19:47.960Z,18.73
2019-03-26T19:22:20.519Z,20.43
2019-03-26T19:24:53.160Z,20.13
2019-03-26T19:27:25.811Z,18.33
2019-03-26T19:29:58.609Z,21.82
2019-03-26T19:32:31.304Z,14.57
2019-03-26T19:35:04.046Z,70.70
2019-03-26T19:37:36.791Z,25.53
2019-03-26T19:40:11.065Z,13.57
2019-03-26T19:42:43.762Z,19.37
2019-03-26T19:45:16.523Z,16.90
2019-03-26T19:47:50.210Z,18.12
2019-03-26T19:50:23.042Z,18.45
2019-03-26T19:52:55.539Z,18.83
2019-03-26T19:55:28.172Z,18.07
2019-03-26T19:58:01.073Z,20.93
2019-03-26T20:00:33.760Z,18.48
2019-03-26T20:03:06.505Z,17.03
2019-03-26T20:05:39.081Z,17.93
2019-03-26T20:08:11.915Z,21.93
2019-03-26T20:10:45.161Z,21.03
2019-03-26T20:13:24.442Z,18.95
2019-03-26T20:15:52.129Z,14.93
2019-03-26T20:18:24.725Z,19.13
2019-03-26T20:20:57.319Z,17.27
2019-03-26T20:23:29.898Z,19.30
2019-03-26T20:26:02.336Z,22.27
2019-03-26T20:28:34.970Z,19.80
2019-03-26T20:31:07.560Z,19.40
2019-03-26T20:33:42.390Z,17.30
2019-03-26T20:36:14.295Z,16.00
2019-03-26T20:38:46.804Z,18.70
2019-03-26T20:41:19.286Z,10.67
2019-03-26T20:43:51.794Z,21.50
2019-03-26T20:46:24.292Z,18.50
2019-03-26T20:48:56.814Z,20.47
2019-03-26T20:51:29.318Z,18.07
2019-03-26T20:54:01.906Z,17.77
2019-03-26T20:56:34.674Z,19.52
2019-03-26T20:59:07.311Z,20.00
2019-03-26T21:01:39.902Z,23.37
2019-03-26T21:04:12.393Z,26.37
2019-03-26T21:06:45.199Z,17.20
2019-03-26T21:09:18.686Z,20.37
2019-03-26T21:11:51.476Z,24.87
2019-03-26T21:14:23.989Z,16.15
2019-03-26T21:16:56.484Z,18.63
2019-03-26T21:19:29.301Z,19.03
2019-03-26T21:22:01.889Z,19.37
2019-03-26T21:24:34.480Z,15.37
2019-03-26T21:27:07.120Z,18.20
2019-03-26T21:29:39.642Z,18.27
2019-03-26T21:32:12.254Z,21.47
2019-03-26T21:34:44.827Z,21.20
2019-03-26T21:37:17.357Z,17.80
2019-03-26T21:39:49.881Z,19.13
2019-03-26T21:42:22.691Z,18.05
2019-03-26T21:44:55.295Z,20.23
2019-03-26T21:47:27.821Z,18.53
2019-03-26T21:50:00.359Z,22.60
2019-03-26T21:52:32.984Z,21.20
2019-03-26T21:55:06.204Z,17.73
2019-03-26T21:57:38.787Z,24.00
2019-03-26T22:00:11.991Z,23.90
2019-03-26T22:02:44.526Z,20.37
2019-03-26T22:05:17.521Z,20.97
2019-03-26T22:07:50.122Z,21.60
2019-03-26T22:10:22.729Z,19.67
2019-03-26T22:12:56.602Z,14.43
2019-03-26T22:15:29.102Z,20.37
2019-03-26T22:18:01.717Z,21.45
2019-03-26T22:20:34.215Z,16.40
2019-03-26T22:23:06.910Z,20.73
2019-03-26T22:25:39.491Z,21.90
2019-03-26T22:28:12.001Z,17.67
2019-03-26T22:30:45.586Z,16.07
2019-03-26T22:33:18.097Z,21.30
2019-03-26T22:35:50.684Z,21.27
2019-03-26T22:38:23.481Z,20.72
2019-03-26T22:40:56.057Z,19.50
2019-03-26T22:43:28.573Z,20.35
2019-03-26T22:46:01.237Z,19.30
2019-03-26T22:48:33.736Z,20.40
2019-03-26T22:51:06.443Z,20.30
2019-03-26T22:53:39.335Z,22.47
2019-03-26T22:56:11.829Z,17.63
2019-03-26T22:58:44.693Z,19.17
2019-03-26T23:01:17.402Z,18.73
2019-03-26T23:03:51.578Z,20.40
2019-03-26T23:06:24.324Z,21.05
2019-03-26T23:08:56.935Z,20.27
2019-03-26T23:11:29.439Z,16.33
2019-03-26T23:14:01.936Z,22.07
2019-03-26T23:16:34.541Z,22.27
2019-03-26T23:19:07.250Z,19.33
2019-03-26T23:21:39.870Z,18.73
2019-03-26T23:24:12.392Z,21.33
2019-03-26T23:26:45.211Z,23.87
2019-03-26T23:29:17.714Z,19.63
2019-03-26T23:31:50.291Z,16.03
2019-03-26T23:34:22.806Z,19.03
2019-03-26T23:36:55.302Z,22.83
2019-03-26T23:39:27.812Z,24.30
2019-03-26T23:42:00.340Z,20.67
2019-03-26T23:44:32.913Z,23.47
2019-03-26T23:47:05.653Z,20.03
2019-03-26T23:49:38.170Z,17.97
2019-03-26T23:52:10.667Z,21.57
2019-03-26T23:54:43.276Z,24.93
2019-03-26T23:57:15.764Z,23.87
2019-03-26T23:59:48.313Z,22.37
